createdAt,value
2023-02-21T00:00:12.731Z,8.23
2023-02-21T00:03:19.719Z,8.26
2023-02-21T00:06:06.857Z,8.29
2023-02-21T00:08:54.227Z,8.30
2023-02-21T00:11:41.134Z,8.34
2023-02-21T00:14:28.037Z,8.37
2023-02-21T00:17:15.563Z,8.41
2023-02-21T00:20:02.877Z,8.40
2023-02-21T00:22:50.394Z,8.43
2023-02-21T00:25:37.409Z,8.45
2023-02-21T00:28:24.616Z,8.46
2023-02-21T00:31:11.591Z,8.46
2023-02-21T00:33:58.741Z,8.48
2023-02-21T00:36:45.651Z,8.52
2023-02-21T00:39:33.063Z,8.51
2023-02-21T00:42:20.274Z,8.51
2023-02-21T00:45:08.409Z,8.51
2023-02-21T00:47:55.831Z,8.52
2023-02-21T00:50:43.569Z,8.51
2023-02-21T00:53:30.464Z,8.51
2023-02-21T00:56:17.781Z,8.53
2023-02-21T00:59:05.093Z,8.51
2023-02-21T01:01:52.826Z,8.52
2023-02-21T01:04:40.437Z,8.55
2023-02-21T01:07:27.260Z,8.56
2023-02-21T01:10:14.257Z,8.56
2023-02-21T01:13:03.212Z,8.54
2023-02-21T01:15:50.449Z,8.53
2023-02-21T01:18:37.544Z,8.53
2023-02-21T01:21:24.968Z,8.55
2023-02-21T01:24:13.712Z,8.55
2023-02-21T01:27:00.817Z,8.55
2023-02-21T01:29:48.650Z,8.56
2023-02-21T01:32:36.004Z,8.57
2023-02-21T01:35:23.483Z,8.59
2023-02-21T01:38:11.923Z,8.61
2023-02-21T01:40:59.654Z,8.67
2023-02-21T01:43:48.407Z,8.70
2023-02-21T01:46:37.968Z,8.72
2023-02-21T01:49:35.004Z,8.76
2023-02-21T01:52:24.339Z,8.78
2023-02-21T01:55:13.834Z,8.81
2023-02-21T01:58:04.685Z,8.85
2023-02-21T02:00:52.573Z,8.89
2023-02-21T02:03:40.897Z,8.93
2023-02-21T02:06:33.330Z,8.97
2023-02-21T02:09:40.103Z,9.00
2023-02-21T02:12:23.725Z,9.04
2023-02-21T02:15:09.610Z,9.06
2023-02-21T02:17:43.826Z,9.10
2023-02-21T02:20:38.715Z,9.14
2023-02-21T02:23:40.045Z,9.19
2023-02-21T02:26:40.782Z,9.22
2023-02-21T02:29:29.208Z,9.28
2023-02-21T02:32:03.714Z,9.35
2023-02-21T02:34:32.026Z,9.37
2023-02-21T02:37:09.506Z,9.42
2023-02-21T02:39:46.284Z,9.46
2023-02-21T02:42:30.019Z,9.49
2023-02-21T02:45:05.468Z,9.50
2023-02-21T02:47:37.939Z,9.52
2023-02-21T02:50:09.914Z,9.55
2023-02-21T02:52:39.404Z,9.57
2023-02-21T02:55:23.147Z,9.57
2023-02-21T02:57:53.179Z,9.60
2023-02-21T03:00:22.497Z,9.61
2023-02-21T03:03:31.861Z,9.62
2023-02-21T03:06:12.465Z,9.63
2023-02-21T03:09:07.347Z,9.63
2023-02-21T03:11:43.664Z,9.64
2023-02-21T03:14:17.838Z,9.65
2023-02-21T03:16:53.293Z,9.65
2023-02-21T03:19:28.313Z,9.66
2023-02-21T03:22:13.625Z,9.66
2023-02-21T03:24:45.789Z,9.65
2023-02-21T03:27:15.667Z,9.65
2023-02-21T03:30:03.146Z,9.68
2023-02-21T03:32:51.627Z,9.71
2023-02-21T03:35:21.241Z,9.75
2023-02-21T03:37:53.609Z,9.77
2023-02-21T03:40:31.147Z,9.76
2023-02-21T03:43:03.273Z,9.74
2023-02-21T03:45:35.841Z,9.72
2023-02-21T03:48:20.252Z,9.70
2023-02-21T03:50:55.470Z,9.71
2023-02-21T03:53:24.662Z,9.71
2023-02-21T03:55:53.242Z,9.70
2023-02-21T03:58:26.455Z,9.69
2023-02-21T04:00:55.072Z,9.68
2023-02-21T04:03:24.129Z,9.70
2023-02-21T04:05:56.717Z,9.69
2023-02-21T04:08:25.797Z,9.69
2023-02-21T04:10:54.199Z,9.70
2023-02-21T04:13:25.355Z,9.70
2023-02-21T04:15:54.548Z,9.70
2023-02-21T04:18:24.158Z,9.70
2023-02-21T04:20:54.180Z,9.69
2023-02-21T04:23:26.351Z,9.66
2023-02-21T04:25:56.984Z,9.64
2023-02-21T04:28:34.890Z,9.65
2023-02-21T04:31:03.614Z,9.64
2023-02-21T04:33:32.585Z,9.65
2023-02-21T04:36:01.595Z,9.66
2023-02-21T04:38:39.781Z,9.65
2023-02-21T04:41:08.377Z,9.66
2023-02-21T04:43:38.302Z,9.65
2023-02-21T04:46:06.941Z,9.66
2023-02-21T04:48:35.676Z,9.66
2023-02-21T04:51:15.186Z,9.66
2023-02-21T04:53:46.239Z,9.66
2023-02-21T04:56:15.580Z,9.67
2023-02-21T04:58:45.659Z,9.66
2023-02-21T05:01:17.105Z,9.66
2023-02-21T05:03:46.047Z,9.66
2023-02-21T05:06:19.442Z,9.67
2023-02-21T05:08:48.432Z,9.69
2023-02-21T05:11:18.110Z,9.69
2023-02-21T05:13:47.253Z,9.69
2023-02-21T05:16:15.757Z,9.70
2023-02-21T05:18:45.837Z,9.72
2023-02-21T05:21:16.525Z,9.72
2023-02-21T05:23:55.914Z,9.75
2023-02-21T05:26:27.707Z,9.75
2023-02-21T05:28:57.096Z,9.76
2023-02-21T05:31:28.321Z,9.76
2023-02-21T05:33:57.533Z,9.76
2023-02-21T05:36:26.160Z,9.76
2023-02-21T05:38:56.278Z,9.77
2023-02-21T05:41:25.164Z,9.80
2023-02-21T05:43:53.962Z,9.82
2023-02-21T05:46:28.690Z,9.85
2023-02-21T05:49:00.037Z,9.87
2023-02-21T05:51:34.978Z,9.92
2023-02-21T05:54:04.689Z,9.96
2023-02-21T05:56:39.576Z,9.99
2023-02-21T05:59:09.299Z,10.02
2023-02-21T06:01:37.932Z,10.06
2023-02-21T06:04:07.831Z,10.09
2023-02-21T06:06:36.753Z,10.12
2023-02-21T06:09:06.375Z,10.14
2023-02-21T06:11:37.933Z,10.16
2023-02-21T06:14:14.857Z,10.18
2023-02-21T06:16:43.268Z,10.20
2023-02-21T06:19:12.997Z,10.21
2023-02-21T06:21:42.267Z,10.25
2023-02-21T06:24:12.383Z,10.27
2023-02-21T06:26:42.532Z,10.27
2023-02-21T06:29:12.078Z,10.27
2023-02-21T06:31:40.647Z,10.27
2023-02-21T06:34:09.339Z,10.28
2023-02-21T06:36:39.357Z,10.30
2023-02-21T06:39:08.455Z,10.31
2023-02-21T06:41:36.737Z,10.31
2023-02-21T06:44:05.692Z,10.32
2023-02-21T06:46:36.655Z,10.34
2023-02-21T06:49:05.581Z,10.36
2023-02-21T06:51:38.625Z,10.38
2023-02-21T06:54:10.797Z,10.41
2023-02-21T06:56:39.119Z,10.49
2023-02-21T06:59:07.611Z,10.57
2023-02-21T07:01:36.316Z,10.65
2023-02-21T07:04:05.006Z,10.72
2023-02-21T07:06:33.746Z,10.78
2023-02-21T07:09:02.171Z,10.86
2023-02-21T07:11:33.563Z,10.93
2023-02-21T07:14:02.463Z,11.04
2023-02-21T07:16:30.803Z,11.12
2023-02-21T07:18:59.286Z,11.22
2023-02-21T07:21:29.205Z,11.32
2023-02-21T07:23:57.488Z,11.48
2023-02-21T07:26:25.672Z,11.65
2023-02-21T07:28:55.016Z,11.76
2023-02-21T07:31:23.844Z,11.87
2023-02-21T07:33:52.247Z,11.98
2023-02-21T07:36:20.844Z,12.05
2023-02-21T07:38:49.534Z,12.09
2023-02-21T07:41:19.347Z,12.16
2023-02-21T07:43:48.252Z,12.20
2023-02-21T07:46:18.479Z,12.25
2023-02-21T07:48:47.787Z,12.27
2023-02-21T07:51:16.413Z,12.30
2023-02-21T07:53:45.269Z,12.36
2023-02-21T07:56:13.751Z,12.49
2023-02-21T07:58:42.045Z,12.64
2023-02-21T08:01:11.334Z,12.77
2023-02-21T08:03:41.046Z,12.89
2023-02-21T08:06:11.335Z,13.02
2023-02-21T08:08:39.504Z,13.19
2023-02-21T08:11:07.836Z,13.31
2023-02-21T08:13:36.221Z,13.42
2023-02-21T08:16:04.767Z,13.50
2023-02-21T08:18:33.094Z,13.51
2023-02-21T08:21:01.371Z,13.53
2023-02-21T08:23:29.651Z,13.62
2023-02-21T08:25:58.037Z,13.76
2023-02-21T08:28:26.930Z,13.85
2023-02-21T08:30:55.732Z,14.06
2023-02-21T08:33:24.416Z,14.21
2023-02-21T08:35:52.603Z,14.29
2023-02-21T08:38:21.819Z,14.35
2023-02-21T08:40:51.639Z,14.47
2023-02-21T08:43:20.007Z,14.54
2023-02-21T08:45:48.181Z,14.52
2023-02-21T08:48:17.046Z,14.49
2023-02-21T08:50:45.610Z,14.53
2023-02-21T08:53:15.485Z,14.58
2023-02-21T08:55:44.283Z,14.63
2023-02-21T08:58:13.244Z,14.65
2023-02-21T09:00:41.608Z,14.66
2023-02-21T09:03:09.943Z,14.69
2023-02-21T09:05:39.473Z,14.68
2023-02-21T09:08:10.594Z,14.82
2023-02-21T09:10:47.844Z,14.94
2023-02-21T09:13:16.687Z,15.10
2023-02-21T09:15:46.218Z,15.33
2023-02-21T09:18:14.474Z,15.44
2023-02-21T09:20:43.070Z,15.44
2023-02-21T09:23:11.967Z,15.46
2023-02-21T09:25:40.240Z,15.66
2023-02-21T09:28:08.525Z,15.93
2023-02-21T09:30:36.851Z,16.35
2023-02-21T09:33:05.408Z,17.10
2023-02-21T09:35:33.891Z,17.94
2023-02-21T09:38:03.183Z,18.71
2023-02-21T09:40:34.854Z,18.63
2023-02-21T09:43:05.899Z,19.03
2023-02-21T09:45:37.063Z,18.49
2023-02-21T09:48:11.774Z,18.44
2023-02-21T09:50:53.360Z,18.18
2023-02-21T09:53:32.174Z,17.59
2023-02-21T09:56:18.376Z,17.94
2023-02-21T09:58:49.507Z,17.67
2023-02-21T10:01:44.093Z,17.36
2023-02-21T10:04:22.640Z,17.38
2023-02-21T10:07:04.194Z,17.66
2023-02-21T10:09:54.278Z,17.78
2023-02-21T10:12:30.945Z,17.86
2023-02-21T10:15:20.530Z,18.02
2023-02-21T10:18:13.481Z,18.20
2023-02-21T10:20:50.138Z,18.11
2023-02-21T10:23:30.001Z,17.66
2023-02-21T10:26:07.570Z,17.31
2023-02-21T10:28:37.249Z,17.61
2023-02-21T10:31:12.879Z,17.60
2023-02-21T10:33:41.635Z,17.86
2023-02-21T10:36:19.224Z,18.45
2023-02-21T10:39:15.451Z,18.77
2023-02-21T10:41:44.644Z,18.61
2023-02-21T10:44:16.320Z,19.01
2023-02-21T10:46:52.467Z,19.22
2023-02-21T10:49:24.954Z,19.18
2023-02-21T10:52:07.069Z,19.26
2023-02-21T10:54:36.454Z,19.58
2023-02-21T10:57:08.872Z,20.25
2023-02-21T10:59:41.411Z,20.31
2023-02-21T11:02:34.672Z,20.83
2023-02-21T11:05:17.673Z,21.39
2023-02-21T11:08:06.428Z,21.83
2023-02-21T11:10:42.392Z,22.32
2023-02-21T11:13:16.505Z,22.71
2023-02-21T11:15:46.296Z,23.33
2023-02-21T11:18:25.954Z,23.69
2023-02-21T11:20:54.641Z,23.80
2023-02-21T11:23:27.394Z,23.80
2023-02-21T11:26:09.514Z,24.45
2023-02-21T11:28:45.380Z,24.86
2023-02-21T11:31:32.563Z,25.12
2023-02-21T11:34:10.407Z,25.23
2023-02-21T11:36:47.310Z,25.23
2023-02-21T11:39:32.959Z,25.18
2023-02-21T11:42:04.374Z,25.18
2023-02-21T11:44:38.133Z,24.22
2023-02-21T11:47:28.601Z,23.26
2023-02-21T11:50:13.147Z,22.56
2023-02-21T11:52:51.879Z,21.75
2023-02-21T11:55:26.153Z,20.68
2023-02-21T11:58:13.716Z,20.09
2023-02-21T12:01:06.491Z,19.76
2023-02-21T12:04:14.952Z,19.20
2023-02-21T12:07:17.351Z,18.80
2023-02-21T12:10:31.514Z,18.72
2023-02-21T12:13:20.874Z,18.72
2023-02-21T12:15:49.226Z,18.76
2023-02-21T12:18:29.645Z,18.67
2023-02-21T12:21:07.848Z,18.57
2023-02-21T12:23:41.889Z,18.94
2023-02-21T12:26:30.204Z,19.15
2023-02-21T12:29:04.214Z,19.34
2023-02-21T12:31:59.861Z,19.57
2023-02-21T12:34:57.386Z,19.56
2023-02-21T12:38:04.596Z,19.58
2023-02-21T12:41:01.532Z,19.61
2023-02-21T12:43:49.413Z,19.74
2023-02-21T12:46:53.104Z,20.04
2023-02-21T12:49:26.161Z,20.23
2023-02-21T12:52:14.840Z,20.12
2023-02-21T12:54:54.826Z,20.26
2023-02-21T12:57:31.561Z,20.27
2023-02-21T13:00:08.140Z,19.93
2023-02-21T13:03:10.630Z,19.44
2023-02-21T13:06:01.602Z,18.94
2023-02-21T13:08:36.529Z,18.58
2023-02-21T13:11:17.167Z,18.23
2023-02-21T13:13:45.776Z,17.89
2023-02-21T13:16:15.098Z,17.88
2023-02-21T13:18:50.219Z,18.18
2023-02-21T13:21:37.948Z,18.45
2023-02-21T13:24:43.782Z,18.31
2023-02-21T13:27:36.021Z,18.18
2023-02-21T13:30:32.749Z,18.14
2023-02-21T13:33:01.640Z,17.85
2023-02-21T13:35:38.013Z,18.08
2023-02-21T13:38:10.897Z,18.28
2023-02-21T13:40:42.351Z,18.53
2023-02-21T13:43:16.568Z,18.21
2023-02-21T13:45:45.878Z,17.91
2023-02-21T13:48:24.006Z,17.72
2023-02-21T13:51:00.864Z,17.47
2023-02-21T13:53:53.296Z,17.14
2023-02-21T13:56:40.954Z,16.80
2023-02-21T13:59:25.273Z,16.50
2023-02-21T14:02:17.497Z,16.26
2023-02-21T14:05:00.470Z,16.01
2023-02-21T14:07:46.334Z,15.78
2023-02-21T14:10:31.963Z,15.48
2023-02-21T14:13:24.301Z,15.06
2023-02-21T14:16:09.488Z,14.28
2023-02-21T14:18:52.172Z,13.64
2023-02-21T14:21:45.631Z,13.12
2023-02-21T14:24:24.442Z,12.76
2023-02-21T14:26:52.771Z,12.45
2023-02-21T14:29:40.119Z,12.24
2023-02-21T14:32:08.566Z,12.06
2023-02-21T14:34:56.534Z,11.92
2023-02-21T14:37:30.489Z,11.80
2023-02-21T14:40:18.219Z,11.70
2023-02-21T14:42:52.944Z,11.57
2023-02-21T14:45:40.696Z,11.48
2023-02-21T14:48:34.834Z,11.41
2023-02-21T14:51:29.313Z,11.36
2023-02-21T14:54:19.698Z,11.31
2023-02-21T14:56:59.266Z,11.26
2023-02-21T15:00:02.822Z,11.25
2023-02-21T15:03:13.063Z,11.24
2023-02-21T15:05:50.360Z,11.25
2023-02-21T15:08:23.797Z,11.18
2023-02-21T15:10:58.273Z,11.10
2023-02-21T15:13:29.313Z,11.04
2023-02-21T15:16:00.873Z,10.95
2023-02-21T15:18:34.999Z,10.89
2023-02-21T15:21:11.768Z,10.85
2023-02-21T15:23:43.321Z,10.83
2023-02-21T15:26:18.556Z,10.81
2023-02-21T15:28:47.040Z,10.79
2023-02-21T15:31:18.447Z,10.70
2023-02-21T15:33:46.984Z,10.63
2023-02-21T15:36:20.800Z,10.57
2023-02-21T15:38:55.009Z,10.51
2023-02-21T15:41:46.093Z,10.42
2023-02-21T15:44:14.506Z,10.32
2023-02-21T15:46:51.386Z,10.24
2023-02-21T15:49:28.161Z,10.13
2023-02-21T15:51:56.534Z,10.04
2023-02-21T15:54:29.017Z,9.96
2023-02-21T15:57:10.700Z,9.90
2023-02-21T15:59:40.293Z,9.89
2023-02-21T16:02:11.607Z,9.85
2023-02-21T16:04:41.488Z,9.83
2023-02-21T16:07:35.605Z,9.82
2023-02-21T16:10:08.227Z,9.83
2023-02-21T16:12:40.096Z,9.82
2023-02-21T16:15:33.973Z,9.83
2023-02-21T16:18:09.720Z,9.85
2023-02-21T16:20:42.807Z,9.86
2023-02-21T16:23:19.997Z,9.84
2023-02-21T16:26:07.215Z,9.82
2023-02-21T16:28:37.484Z,9.82
2023-02-21T16:31:14.654Z,9.82
2023-02-21T16:33:43.719Z,9.82
2023-02-21T16:36:22.141Z,9.83
2023-02-21T16:38:51.034Z,9.84
2023-02-21T16:41:19.630Z,9.85
2023-02-21T16:43:48.516Z,9.81
2023-02-21T16:46:24.702Z,9.80
2023-02-21T16:48:54.511Z,9.80
2023-02-21T16:51:23.091Z,9.79
2023-02-21T16:53:51.566Z,9.79
2023-02-21T16:56:19.863Z,9.78
2023-02-21T16:58:54.480Z,9.75
2023-02-21T17:01:29.690Z,9.70
2023-02-21T17:03:58.220Z,9.67
2023-02-21T17:06:27.911Z,9.64
2023-02-21T17:09:13.423Z,9.63
2023-02-21T17:11:48.461Z,9.59
2023-02-21T17:14:16.918Z,9.58
2023-02-21T17:16:46.124Z,9.54
2023-02-21T17:19:17.477Z,9.50
2023-02-21T17:21:46.167Z,9.47
2023-02-21T17:24:15.369Z,9.40
2023-02-21T17:26:44.262Z,9.37
2023-02-21T17:29:12.745Z,9.37
2023-02-21T17:31:41.128Z,9.36
2023-02-21T17:34:09.415Z,9.34
2023-02-21T17:36:38.120Z,9.34
2023-02-21T17:39:07.070Z,9.34
2023-02-21T17:41:35.595Z,9.37
2023-02-21T17:44:04.180Z,9.37
2023-02-21T17:46:33.435Z,9.37
2023-02-21T17:49:01.668Z,9.36
2023-02-21T17:51:30.253Z,9.35
2023-02-21T17:53:58.540Z,9.33
2023-02-21T17:56:28.269Z,9.29
2023-02-21T17:58:57.554Z,9.25
2023-02-21T18:01:26.161Z,9.21
2023-02-21T18:03:54.533Z,9.16
2023-02-21T18:06:22.933Z,9.13
2023-02-21T18:08:51.296Z,9.09
2023-02-21T18:11:20.302Z,9.02
2023-02-21T18:13:48.891Z,9.00
2023-02-21T18:16:18.323Z,9.01
2023-02-21T18:18:46.675Z,9.00
2023-02-21T18:21:16.031Z,9.00
2023-02-21T18:23:46.215Z,8.99
2023-02-21T18:26:15.593Z,8.97
2023-02-21T18:28:44.011Z,8.94
2023-02-21T18:31:16.521Z,8.92
2023-02-21T18:33:46.371Z,8.92
2023-02-21T18:36:14.588Z,8.91
2023-02-21T18:38:43.086Z,8.85
2023-02-21T18:41:17.389Z,8.80
2023-02-21T18:43:46.567Z,8.72
2023-02-21T18:46:17.770Z,8.62
2023-02-21T18:48:49.197Z,8.53
2023-02-21T18:51:20.467Z,8.46
2023-02-21T18:53:49.449Z,8.44
2023-02-21T18:56:19.554Z,8.48
2023-02-21T18:58:49.671Z,8.51
2023-02-21T19:01:22.010Z,8.53
2023-02-21T19:03:51.459Z,8.55
2023-02-21T19:06:21.492Z,8.58
2023-02-21T19:08:50.707Z,8.60
2023-02-21T19:11:18.977Z,8.62
2023-02-21T19:13:50.135Z,8.64
2023-02-21T19:16:20.293Z,8.67
2023-02-21T19:18:51.604Z,8.67
2023-02-21T19:21:22.069Z,8.63
2023-02-21T19:23:50.888Z,8.58
2023-02-21T19:26:19.628Z,8.54
2023-02-21T19:28:48.105Z,8.49
2023-02-21T19:31:20.727Z,8.43
2023-02-21T19:33:49.276Z,8.39
2023-02-21T19:36:19.862Z,8.41
2023-02-21T19:38:48.886Z,8.39
2023-02-21T19:41:18.788Z,8.35
2023-02-21T19:43:47.639Z,8.32
2023-02-21T19:46:25.234Z,8.31
2023-02-21T19:48:54.212Z,8.33
2023-02-21T19:51:24.831Z,8.36
2023-02-21T19:53:53.343Z,8.42
2023-02-21T19:56:22.412Z,8.49
2023-02-21T19:58:51.741Z,8.58
2023-02-21T20:01:21.732Z,8.68
2023-02-21T20:03:50.760Z,8.79
2023-02-21T20:06:19.596Z,8.87
2023-02-21T20:08:48.890Z,8.91
2023-02-21T20:11:20.733Z,8.96
2023-02-21T20:13:49.869Z,8.98
2023-02-21T20:16:20.507Z,9.00
2023-02-21T20:18:52.034Z,8.98
2023-02-21T20:21:30.854Z,8.95
2023-02-21T20:24:00.181Z,8.95
2023-02-21T20:26:29.590Z,8.96
2023-02-21T20:28:58.150Z,8.91
2023-02-21T20:31:30.196Z,8.88
2023-02-21T20:34:03.172Z,8.83
2023-02-21T20:36:37.850Z,8.70
2023-02-21T20:39:09.556Z,8.59
2023-02-21T20:41:40.940Z,8.51
2023-02-21T20:44:09.912Z,8.50
2023-02-21T20:46:38.733Z,8.45
2023-02-21T20:49:07.651Z,8.41
2023-02-21T20:51:39.083Z,8.39
2023-02-21T20:54:11.188Z,8.42
2023-02-21T20:56:42.306Z,8.43
2023-02-21T20:59:16.334Z,8.37
2023-02-21T21:01:48.460Z,8.36
2023-02-21T21:04:23.036Z,8.30
2023-02-21T21:06:51.291Z,8.27
2023-02-21T21:09:28.925Z,8.27
2023-02-21T21:12:00.977Z,8.29
2023-02-21T21:14:31.701Z,8.28
2023-02-21T21:17:00.899Z,8.30
2023-02-21T21:19:37.259Z,8.35
2023-02-21T21:22:09.213Z,8.35
2023-02-21T21:24:38.511Z,8.32
2023-02-21T21:27:10.298Z,8.35
2023-02-21T21:29:43.685Z,8.39
2023-02-21T21:32:15.394Z,8.37
2023-02-21T21:34:46.755Z,8.31
2023-02-21T21:37:17.237Z,8.27
2023-02-21T21:39:54.526Z,8.26
2023-02-21T21:42:28.345Z,8.26
2023-02-21T21:44:57.740Z,8.28
2023-02-21T21:47:34.207Z,8.24
2023-02-21T21:50:05.141Z,8.21
2023-02-21T21:52:34.348Z,8.17
2023-02-21T21:55:03.250Z,8.16
2023-02-21T21:57:33.269Z,8.16
2023-02-21T22:00:01.958Z,8.18
2023-02-21T22:02:30.495Z,8.20
2023-02-21T22:04:58.731Z,8.20
2023-02-21T22:07:26.915Z,8.17
2023-02-21T22:09:55.506Z,8.13
2023-02-21T22:12:23.684Z,8.08
2023-02-21T22:14:52.070Z,8.05
2023-02-21T22:17:20.550Z,8.00
2023-02-21T22:19:48.937Z,7.94
2023-02-21T22:22:18.035Z,7.89
2023-02-21T22:24:46.533Z,7.82
2023-02-21T22:27:15.315Z,7.72
2023-02-21T22:29:43.693Z,7.63
2023-02-21T22:32:12.301Z,7.56
2023-02-21T22:34:40.664Z,7.51
2023-02-21T22:37:10.491Z,7.49
2023-02-21T22:39:39.179Z,7.45
2023-02-21T22:42:09.007Z,7.46
2023-02-21T22:44:37.786Z,7.47
2023-02-21T22:47:06.474Z,7.51
2023-02-21T22:49:35.267Z,7.56
2023-02-21T22:52:04.385Z,7.58
2023-02-21T22:54:32.761Z,7.59
2023-02-21T22:57:02.994Z,7.61
2023-02-21T22:59:34.381Z,7.60
2023-02-21T23:02:03.347Z,7.60
2023-02-21T23:04:37.503Z,7.59
2023-02-21T23:07:06.559Z,7.61
2023-02-21T23:09:37.384Z,7.61
2023-02-21T23:12:06.386Z,7.60
2023-02-21T23:14:35.287Z,7.57
2023-02-21T23:17:03.982Z,7.56
2023-02-21T23:19:32.555Z,7.57
2023-02-21T23:22:01.537Z,7.59
2023-02-21T23:24:29.942Z,7.63
2023-02-21T23:26:58.256Z,7.70
2023-02-21T23:29:26.705Z,7.77
2023-02-21T23:32:09.736Z,7.79
2023-02-21T23:34:41.457Z,7.79
2023-02-21T23:37:15.420Z,7.79
2023-02-21T23:39:46.873Z,7.80
2023-02-21T23:42:17.679Z,7.77
2023-02-21T23:44:48.641Z,7.69
2023-02-21T23:47:17.335Z,7.62
2023-02-21T23:49:46.029Z,7.60
2023-02-21T23:52:16.071Z,7.60
2023-02-21T23:54:44.439Z,7.57
2023-02-21T23:57:12.611Z,7.50
2023-02-21T23:59:41.813Z,7.47
